createdAt,value
2023-01-28T00:01:18.160Z,100630.81
2023-01-28T00:03:46.136Z,100629.22
2023-01-28T00:06:16.286Z,100629.63
2023-01-28T00:08:43.940Z,100624.88
2023-01-28T00:11:14.039Z,100623.03
2023-01-28T00:13:42.109Z,100625.25
2023-01-28T00:16:10.614Z,100617.59
2023-01-28T00:18:39.139Z,100617.41
2023-01-28T00:21:09.523Z,100623.31
2023-01-28T00:23:40.279Z,100621.84
2023-01-28T00:26:11.222Z,100620.06
2023-01-28T00:28:41.847Z,100622.31
2023-01-28T00:31:10.740Z,100627.91
2023-01-28T00:33:38.820Z,100621.31
2023-01-28T00:36:07.624Z,100615.09
2023-01-28T00:38:35.757Z,100613.44
2023-01-28T00:41:15.685Z,100611.69
2023-01-28T00:43:44.766Z,100610.72
2023-01-28T00:46:14.081Z,100615.78
2023-01-28T00:48:43.506Z,100608.25
2023-01-28T00:51:13.523Z,100609.00
2023-01-28T00:53:42.100Z,100615.38
2023-01-28T00:56:12.888Z,100605.69
2023-01-28T00:58:42.727Z,100610.13
2023-01-28T01:01:12.311Z,100606.06
2023-01-28T01:03:40.211Z,100616.47
2023-01-28T01:06:08.983Z,100617.28
2023-01-28T01:08:39.902Z,100624.06
2023-01-28T01:11:09.161Z,100600.25
2023-01-28T01:13:37.851Z,100599.56
2023-01-28T01:16:09.717Z,100609.44
2023-01-28T01:18:42.058Z,100613.94
2023-01-28T01:21:11.594Z,100606.66
2023-01-28T01:23:39.417Z,100617.03
2023-01-28T01:26:08.570Z,100615.31
2023-01-28T01:28:36.672Z,100612.28
2023-01-28T01:31:07.573Z,100614.50
2023-01-28T01:33:35.920Z,100616.25
2023-01-28T01:36:03.875Z,100624.44
2023-01-28T01:38:31.550Z,100619.44
2023-01-28T01:41:00.074Z,100592.69
2023-01-28T01:43:50.667Z,100574.06
2023-01-28T01:46:23.666Z,100622.88
2023-01-28T01:48:53.332Z,100627.53
2023-01-28T01:51:27.067Z,100633.16
2023-01-28T01:53:58.093Z,100631.81
2023-01-28T01:56:31.698Z,100637.22
2023-01-28T01:59:00.745Z,100639.47
2023-01-28T02:01:32.471Z,100638.56
2023-01-28T02:04:07.034Z,100640.13
2023-01-28T02:06:37.613Z,100638.00
2023-01-28T02:09:22.475Z,100636.56
2023-01-28T02:11:52.339Z,100633.56
2023-01-28T02:14:30.671Z,100638.00
2023-01-28T02:17:01.640Z,100636.28
2023-01-28T02:19:38.213Z,100636.41
2023-01-28T02:22:27.881Z,100643.09
2023-01-28T02:25:18.730Z,100646.50
2023-01-28T02:28:10.049Z,100645.81
2023-01-28T02:30:41.662Z,100649.91
2023-01-28T02:33:18.373Z,100649.91
2023-01-28T02:35:53.426Z,100646.19
2023-01-28T02:38:27.613Z,100635.06
2023-01-28T02:41:06.396Z,100640.81
2023-01-28T02:43:38.513Z,100638.13
2023-01-28T02:46:34.493Z,100635.06
2023-01-28T02:49:05.876Z,100633.13
2023-01-28T02:51:47.423Z,100636.25
2023-01-28T02:54:25.163Z,100637.53
2023-01-28T02:57:01.030Z,100634.63
2023-01-28T02:59:37.079Z,100632.16
2023-01-28T03:02:17.632Z,100636.50
2023-01-28T03:04:51.387Z,100644.91
2023-01-28T03:07:20.902Z,100643.06
2023-01-28T03:09:51.129Z,100646.53
2023-01-28T03:12:40.363Z,100641.59
2023-01-28T03:15:32.153Z,100642.25
2023-01-28T03:18:21.412Z,100650.50
2023-01-28T03:21:13.281Z,100651.47
2023-01-28T03:24:06.174Z,100646.69
2023-01-28T03:26:57.373Z,100649.56
2023-01-28T03:29:44.958Z,100654.88
2023-01-28T03:32:34.681Z,100661.25
2023-01-28T03:35:20.917Z,100658.72
2023-01-28T03:37:48.797Z,100651.47
2023-01-28T03:40:22.756Z,100660.75
2023-01-28T03:42:52.206Z,100662.28
2023-01-28T03:45:33.020Z,100669.91
2023-01-28T03:48:04.012Z,100676.94
2023-01-28T03:50:31.925Z,100680.44
2023-01-28T03:53:13.509Z,100685.63
2023-01-28T03:55:54.151Z,100693.31
2023-01-28T03:58:23.339Z,100699.41
2023-01-28T04:00:52.082Z,100692.94
2023-01-28T04:03:22.340Z,100689.59
2023-01-28T04:06:00.826Z,100693.88
2023-01-28T04:08:59.210Z,100692.75
2023-01-28T04:11:46.014Z,100692.53
2023-01-28T04:14:18.560Z,100694.38
2023-01-28T04:16:52.019Z,100695.97
2023-01-28T04:19:21.739Z,100689.97
2023-01-28T04:21:49.885Z,100693.22
2023-01-28T04:24:18.102Z,100703.34
2023-01-28T04:26:45.909Z,100690.66
2023-01-28T04:29:13.834Z,100685.72
2023-01-28T04:31:41.612Z,100696.84
2023-01-28T04:34:20.329Z,100694.44
2023-01-28T04:37:11.018Z,100691.22
2023-01-28T04:39:45.414Z,100696.84
2023-01-28T04:42:39.333Z,100704.00
2023-01-28T04:45:19.313Z,100698.19
2023-01-28T04:48:10.397Z,100700.28
2023-01-28T04:51:07.687Z,100708.94
2023-01-28T04:53:50.667Z,100708.94
2023-01-28T04:56:30.749Z,100704.81
2023-01-28T04:58:58.444Z,100708.81
2023-01-28T05:01:27.306Z,100703.38
2023-01-28T05:03:55.015Z,100701.38
2023-01-28T05:06:26.205Z,100710.59
2023-01-28T05:09:15.526Z,100709.03
2023-01-28T05:11:43.341Z,100703.88
2023-01-28T05:14:11.136Z,100708.81
2023-01-28T05:16:42.843Z,100709.94
2023-01-28T05:19:12.181Z,100712.66
2023-01-28T05:21:42.809Z,100709.34
2023-01-28T05:24:21.489Z,100718.81
2023-01-28T05:26:49.369Z,100711.09
2023-01-28T05:29:18.067Z,100728.38
2023-01-28T05:31:48.802Z,100725.75
2023-01-28T05:34:18.268Z,100729.06
2023-01-28T05:36:46.217Z,100730.78
2023-01-28T05:39:28.947Z,100723.75
2023-01-28T05:41:56.667Z,100724.34
2023-01-28T05:44:24.758Z,100726.00
2023-01-28T05:47:18.527Z,100727.88
2023-01-28T05:49:52.464Z,100734.00
2023-01-28T05:52:38.133Z,100738.94
2023-01-28T05:55:11.359Z,100742.09
2023-01-28T05:57:39.003Z,100738.66
2023-01-28T06:00:09.777Z,100739.88
2023-01-28T06:02:42.391Z,100742.94
2023-01-28T06:05:12.405Z,100750.31
2023-01-28T06:07:41.470Z,100752.31
2023-01-28T06:10:13.976Z,100751.44
2023-01-28T06:12:41.966Z,100761.81
2023-01-28T06:15:39.327Z,100755.59
2023-01-28T06:18:18.907Z,100766.25
2023-01-28T06:20:46.682Z,100776.19
2023-01-28T06:23:14.459Z,100764.47
2023-01-28T06:25:43.559Z,100769.19
2023-01-28T06:28:13.722Z,100770.78
2023-01-28T06:30:41.560Z,100775.81
2023-01-28T06:33:09.211Z,100782.75
2023-01-28T06:35:36.902Z,100789.34
2023-01-28T06:38:05.052Z,100790.78
2023-01-28T06:40:32.742Z,100790.19
2023-01-28T06:43:01.691Z,100797.50
2023-01-28T06:45:29.396Z,100800.78
2023-01-28T06:47:57.007Z,100807.09
2023-01-28T06:50:25.068Z,100806.28
2023-01-28T06:52:52.738Z,100810.88
2023-01-28T06:55:20.431Z,100811.09
2023-01-28T06:57:48.236Z,100813.00
2023-01-28T07:00:18.706Z,100814.31
2023-01-28T07:02:46.465Z,100826.41
2023-01-28T07:05:14.163Z,100815.53
2023-01-28T07:07:42.264Z,100829.81
2023-01-28T07:10:11.583Z,100828.81
2023-01-28T07:12:40.279Z,100831.84
2023-01-28T07:15:10.841Z,100820.00
2023-01-28T07:17:42.084Z,100819.69
2023-01-28T07:20:12.174Z,100832.13
2023-01-28T07:22:41.997Z,100831.63
2023-01-28T07:25:12.059Z,100833.97
2023-01-28T07:27:39.786Z,100831.84
2023-01-28T07:30:08.578Z,100834.56
2023-01-28T07:32:36.305Z,100837.78
2023-01-28T07:35:05.874Z,100833.47
2023-01-28T07:37:33.778Z,100830.25
2023-01-28T07:40:01.531Z,100833.63
2023-01-28T07:42:29.631Z,100828.63
2023-01-28T07:44:57.494Z,100827.41
2023-01-28T07:47:25.187Z,100831.53
2023-01-28T07:49:52.879Z,100835.47
2023-01-28T07:52:21.864Z,100832.41
2023-01-28T07:54:49.509Z,100834.56
2023-01-28T07:57:23.467Z,100836.13
2023-01-28T07:59:51.678Z,100832.25
2023-01-28T08:02:19.645Z,100843.78
2023-01-28T08:04:47.668Z,100849.72
2023-01-28T08:07:15.447Z,100852.44
2023-01-28T08:09:44.381Z,100793.00
2023-01-28T08:12:12.019Z,100854.03
2023-01-28T08:14:39.718Z,100852.06
2023-01-28T08:17:07.350Z,100852.94
2023-01-28T08:19:34.978Z,100848.63
2023-01-28T08:22:02.567Z,100860.78
2023-01-28T08:24:30.336Z,100854.06
2023-01-28T08:26:59.383Z,100860.94
2023-01-28T08:29:27.019Z,100867.69
2023-01-28T08:31:54.652Z,100867.28
2023-01-28T08:34:22.533Z,100866.81
2023-01-28T08:36:50.253Z,100866.47
2023-01-28T08:39:17.870Z,100865.13
2023-01-28T08:41:45.489Z,100862.75
2023-01-28T08:44:14.416Z,100860.63
2023-01-28T08:46:42.093Z,100861.00
2023-01-28T08:49:09.868Z,100862.34
2023-01-28T08:51:37.621Z,100868.25
2023-01-28T08:54:05.305Z,100862.00
2023-01-28T08:56:33.174Z,100868.41
2023-01-28T08:59:00.797Z,100818.91
2023-01-28T09:01:29.779Z,100861.81
2023-01-28T09:03:57.437Z,100866.84
2023-01-28T09:06:25.169Z,100873.25
2023-01-28T09:08:52.797Z,100864.44
2023-01-28T09:11:20.429Z,100865.31
2023-01-28T09:13:48.059Z,100870.16
2023-01-28T09:16:15.802Z,100878.44
2023-01-28T09:18:45.092Z,100874.22
2023-01-28T09:21:12.773Z,100881.25
2023-01-28T09:23:40.415Z,100878.72
2023-01-28T09:26:09.042Z,100882.28
2023-01-28T09:28:38.298Z,100891.44
2023-01-28T09:31:08.252Z,100892.13
2023-01-28T09:33:37.457Z,100897.94
2023-01-28T09:36:08.774Z,100899.38
2023-01-28T09:38:36.500Z,100899.13
2023-01-28T09:41:16.267Z,100906.50
2023-01-28T09:43:57.128Z,100902.66
2023-01-28T09:46:32.074Z,100908.91
2023-01-28T09:49:02.282Z,100913.69
2023-01-28T09:51:35.453Z,100913.72
2023-01-28T09:54:07.464Z,100913.97
2023-01-28T09:56:41.230Z,100904.88
2023-01-28T09:59:20.170Z,100911.94
2023-01-28T10:01:55.381Z,100910.78
2023-01-28T10:04:34.130Z,100910.22
2023-01-28T10:07:18.457Z,100911.25
2023-01-28T10:09:52.082Z,100891.06
2023-01-28T10:12:52.685Z,100911.19
2023-01-28T10:15:31.850Z,100912.69
2023-01-28T10:18:16.594Z,100919.59
2023-01-28T10:20:49.632Z,100920.81
2023-01-28T10:23:23.529Z,100924.03
2023-01-28T10:25:51.183Z,100925.88
2023-01-28T10:28:22.064Z,100921.75
2023-01-28T10:30:50.158Z,100927.31
2023-01-28T10:33:21.400Z,100930.09
2023-01-28T10:35:49.631Z,100921.94
2023-01-28T10:38:25.707Z,100924.81
2023-01-28T10:40:53.779Z,100927.38
2023-01-28T10:43:31.106Z,100935.63
2023-01-28T10:46:03.621Z,100922.53
2023-01-28T10:48:35.056Z,100930.03
2023-01-28T10:51:06.057Z,100930.72
2023-01-28T10:53:40.660Z,100935.81
2023-01-28T10:56:11.098Z,100935.00
2023-01-28T10:58:59.810Z,100931.25
2023-01-28T11:01:40.094Z,100927.53
2023-01-28T11:04:16.115Z,100939.53
2023-01-28T11:06:43.863Z,100940.00
2023-01-28T11:09:24.512Z,100934.81
2023-01-28T11:11:52.207Z,100944.97
2023-01-28T11:14:22.192Z,100945.19
2023-01-28T11:16:52.783Z,100951.13
2023-01-28T11:19:22.308Z,100947.63
2023-01-28T11:21:53.092Z,100945.38
2023-01-28T11:24:26.896Z,100937.69
2023-01-28T11:26:57.461Z,100914.56
2023-01-28T11:29:31.957Z,100949.97
2023-01-28T11:32:00.729Z,100947.78
2023-01-28T11:34:30.238Z,100948.97
2023-01-28T11:37:04.354Z,100944.94
2023-01-28T11:39:33.395Z,100952.56
2023-01-28T11:42:17.130Z,100943.00
2023-01-28T11:44:45.209Z,100937.94
2023-01-28T11:47:45.079Z,100929.19
2023-01-28T11:50:26.482Z,100928.06
2023-01-28T11:53:08.046Z,100927.13
2023-01-28T11:55:44.713Z,100928.34
2023-01-28T11:58:22.496Z,100923.72
2023-01-28T12:01:03.549Z,100921.00
2023-01-28T12:03:44.124Z,100928.75
2023-01-28T12:06:26.692Z,100927.66
2023-01-28T12:09:01.550Z,100928.47
2023-01-28T12:11:55.782Z,100917.03
2023-01-28T12:14:31.047Z,100911.84
2023-01-28T12:17:08.919Z,100907.94
2023-01-28T12:19:56.947Z,100913.44
2023-01-28T12:22:40.138Z,100911.28
2023-01-28T12:25:22.281Z,100914.28
2023-01-28T12:28:01.264Z,100914.16
2023-01-28T12:30:44.658Z,100908.31
2023-01-28T12:33:36.746Z,100908.19
2023-01-28T12:36:17.238Z,100911.81
2023-01-28T12:38:55.525Z,100915.16
2023-01-28T12:41:29.509Z,100906.84
2023-01-28T12:44:03.468Z,100914.97
2023-01-28T12:46:39.851Z,100918.19
2023-01-28T12:49:12.954Z,100912.16
2023-01-28T12:51:52.036Z,100900.78
2023-01-28T12:54:25.780Z,100911.34
2023-01-28T12:56:55.224Z,100911.47
2023-01-28T12:59:30.118Z,100910.38
2023-01-28T13:02:06.601Z,100911.09
2023-01-28T13:04:43.347Z,100853.75
2023-01-28T13:07:15.290Z,100908.25
2023-01-28T13:09:50.622Z,100897.44
2023-01-28T13:12:19.605Z,100900.56
2023-01-28T13:14:49.550Z,100897.91
2023-01-28T13:17:27.288Z,100899.97
2023-01-28T13:19:55.017Z,100904.19
2023-01-28T13:22:31.843Z,100908.25
2023-01-28T13:25:14.964Z,100896.66
2023-01-28T13:27:42.800Z,100909.25
2023-01-28T13:30:26.750Z,100914.69
2023-01-28T13:32:59.776Z,100917.88
2023-01-28T13:35:36.397Z,100926.69
2023-01-28T13:38:10.130Z,100928.69
2023-01-28T13:40:41.592Z,100922.75
2023-01-28T13:43:27.042Z,100929.84
2023-01-28T13:46:01.178Z,100929.09
2023-01-28T13:48:33.538Z,100933.59
2023-01-28T13:51:03.065Z,100947.59
2023-01-28T13:53:41.169Z,100944.88
2023-01-28T13:56:19.494Z,100950.03
2023-01-28T13:59:10.124Z,100952.72
2023-01-28T14:02:03.019Z,100953.63
2023-01-28T14:05:00.272Z,100962.19
2023-01-28T14:07:41.479Z,100968.03
2023-01-28T14:10:45.116Z,100965.16
2023-01-28T14:13:45.868Z,100978.84
2023-01-28T14:16:31.310Z,100988.63
2023-01-28T14:19:03.144Z,100981.00
2023-01-28T14:21:34.907Z,100983.22
2023-01-28T14:24:02.992Z,100990.78
2023-01-28T14:26:41.710Z,100980.81
2023-01-28T14:29:19.644Z,100969.22
2023-01-28T14:31:48.146Z,100979.59
2023-01-28T14:34:25.264Z,100983.81
2023-01-28T14:36:57.040Z,100985.94
2023-01-28T14:39:28.229Z,100983.22
2023-01-28T14:41:59.249Z,100980.63
2023-01-28T14:44:33.409Z,100970.44
2023-01-28T14:47:30.523Z,100985.47
2023-01-28T14:50:17.760Z,100985.53
2023-01-28T14:53:02.312Z,100983.13
2023-01-28T14:55:38.279Z,100988.97
2023-01-28T14:58:10.000Z,101002.72
2023-01-28T15:00:39.526Z,100998.31
2023-01-28T15:03:24.927Z,100994.41
2023-01-28T15:06:07.492Z,100999.28
2023-01-28T15:08:35.816Z,101008.56
2023-01-28T15:11:04.219Z,101008.28
2023-01-28T15:13:37.449Z,101004.19
2023-01-28T15:16:06.326Z,101013.03
2023-01-28T15:18:37.260Z,101015.16
2023-01-28T15:21:06.600Z,101006.00
2023-01-28T15:23:36.130Z,101002.16
2023-01-28T15:26:07.213Z,101009.00
2023-01-28T15:28:37.836Z,100988.41
2023-01-28T15:31:06.071Z,101008.03
2023-01-28T15:33:33.844Z,100991.63
2023-01-28T15:36:01.631Z,100989.09
2023-01-28T15:38:30.737Z,100990.16
2023-01-28T15:41:01.226Z,100989.94
2023-01-28T15:43:31.426Z,100989.94
2023-01-28T15:46:00.478Z,100997.31
2023-01-28T15:48:30.141Z,101001.53
2023-01-28T15:51:03.084Z,101001.66
2023-01-28T15:53:42.929Z,100995.22
2023-01-28T15:56:12.837Z,100996.94
2023-01-28T15:58:42.222Z,101012.44
2023-01-28T16:01:21.419Z,101003.63
2023-01-28T16:04:01.927Z,101008.84
2023-01-28T16:06:34.115Z,101016.56
2023-01-28T16:09:05.795Z,101004.53
2023-01-28T16:11:41.252Z,101013.69
2023-01-28T16:14:25.144Z,101006.22
2023-01-28T16:16:55.634Z,100996.09
2023-01-28T16:19:33.630Z,100998.72
2023-01-28T16:22:02.389Z,100999.81
2023-01-28T16:24:36.090Z,101015.44
2023-01-28T16:27:06.806Z,101019.78
2023-01-28T16:29:34.579Z,101016.41
2023-01-28T16:32:03.648Z,101016.47
2023-01-28T16:34:31.400Z,101023.16
2023-01-28T16:36:59.918Z,101025.06
2023-01-28T16:39:27.566Z,101030.69
2023-01-28T16:41:56.859Z,101037.22
2023-01-28T16:44:24.624Z,101035.69
2023-01-28T16:46:52.332Z,101035.16
2023-01-28T16:49:19.979Z,101034.00
2023-01-28T16:51:47.746Z,101039.66
2023-01-28T16:54:17.334Z,101033.78
2023-01-28T16:56:46.754Z,101036.84
2023-01-28T16:59:17.121Z,101014.72
2023-01-28T17:01:45.665Z,101040.16
2023-01-28T17:04:13.639Z,101034.22
2023-01-28T17:06:44.180Z,101045.13
2023-01-28T17:09:12.991Z,101049.16
2023-01-28T17:11:41.080Z,101053.78
2023-01-28T17:14:09.430Z,101045.59
2023-01-28T17:16:38.685Z,101043.41
2023-01-28T17:19:06.565Z,101048.22
2023-01-28T17:21:34.211Z,101051.06
2023-01-28T17:24:03.017Z,101048.47
2023-01-28T17:26:30.956Z,101055.53
2023-01-28T17:28:58.595Z,101060.97
2023-01-28T17:31:27.279Z,101059.81
2023-01-28T17:33:58.064Z,101060.97
2023-01-28T17:36:26.893Z,101064.72
2023-01-28T17:38:55.056Z,101060.97
2023-01-28T17:41:23.048Z,101057.44
2023-01-28T17:43:51.617Z,101056.94
2023-01-28T17:46:20.070Z,101071.28
2023-01-28T17:48:47.923Z,101076.31
2023-01-28T17:51:18.654Z,101089.69
2023-01-28T17:53:47.554Z,101079.94
2023-01-28T17:56:19.314Z,101084.84
2023-01-28T17:58:50.884Z,101100.31
2023-01-28T18:01:18.684Z,101101.69
2023-01-28T18:03:46.538Z,101100.66
2023-01-28T18:06:14.200Z,101102.88
2023-01-28T18:08:43.898Z,101098.38
2023-01-28T18:11:14.025Z,101073.47
2023-01-28T18:13:43.044Z,101099.50
2023-01-28T18:16:15.902Z,101093.75
2023-01-28T18:18:43.834Z,101095.94
2023-01-28T18:21:21.045Z,101099.00
2023-01-28T18:23:53.532Z,101091.19
2023-01-28T18:26:22.108Z,101099.06
2023-01-28T18:28:49.781Z,101099.84
2023-01-28T18:31:17.523Z,101104.22
2023-01-28T18:33:45.247Z,101093.97
2023-01-28T18:36:13.022Z,101107.88
2023-01-28T18:38:40.688Z,101111.56
2023-01-28T18:41:09.694Z,101111.84
2023-01-28T18:43:37.381Z,101111.75
2023-01-28T18:46:11.546Z,101085.38
2023-01-28T18:48:39.495Z,101097.44
2023-01-28T18:51:17.454Z,101095.41
2023-01-28T18:53:57.682Z,101104.16
2023-01-28T18:56:26.911Z,101098.31
2023-01-28T18:58:57.640Z,101082.94
2023-01-28T19:01:25.303Z,101098.22
2023-01-28T19:03:54.444Z,101109.13
2023-01-28T19:06:22.218Z,101105.63
2023-01-28T19:08:53.481Z,101127.22
2023-01-28T19:11:21.800Z,101132.81
2023-01-28T19:13:51.009Z,101144.22
2023-01-28T19:16:19.200Z,101141.78
2023-01-28T19:18:52.791Z,101144.28
2023-01-28T19:21:20.518Z,101148.59
2023-01-28T19:23:50.393Z,101149.69
2023-01-28T19:26:21.234Z,101153.28
2023-01-28T19:28:51.085Z,101161.41
2023-01-28T19:31:19.642Z,101156.72
2023-01-28T19:33:47.391Z,101158.28
2023-01-28T19:36:15.208Z,101160.53
2023-01-28T19:38:42.891Z,101166.25
2023-01-28T19:41:13.375Z,101170.25
2023-01-28T19:43:41.077Z,101177.00
2023-01-28T19:46:14.408Z,101160.53
2023-01-28T19:48:42.138Z,101163.59
2023-01-28T19:51:10.819Z,101149.81
2023-01-28T19:53:40.084Z,101172.19
2023-01-28T19:56:10.507Z,101179.28
2023-01-28T19:58:39.772Z,101177.84
2023-01-28T20:01:08.674Z,101183.63
2023-01-28T20:03:38.386Z,101191.44
2023-01-28T20:06:07.950Z,101186.50
2023-01-28T20:08:35.612Z,101184.97
2023-01-28T20:11:05.152Z,101183.47
2023-01-28T20:13:34.049Z,101189.03
2023-01-28T20:16:05.837Z,101167.78
2023-01-28T20:18:33.945Z,101189.41
2023-01-28T20:21:04.920Z,101187.88
2023-01-28T20:23:33.598Z,101180.69
2023-01-28T20:26:01.901Z,101177.44
2023-01-28T20:28:29.769Z,101169.31
2023-01-28T20:30:57.491Z,101181.63
2023-01-28T20:33:25.328Z,101187.88
2023-01-28T20:35:53.068Z,101179.16
2023-01-28T20:38:22.048Z,101193.19
2023-01-28T20:40:49.688Z,101181.53
2023-01-28T20:43:17.353Z,101176.63
2023-01-28T20:45:45.015Z,101172.03
2023-01-28T20:48:12.774Z,101171.50
2023-01-28T20:50:40.557Z,101175.59
2023-01-28T20:53:08.203Z,101191.13
2023-01-28T20:55:37.230Z,101203.31
2023-01-28T20:58:05.288Z,101197.09
2023-01-28T21:00:32.957Z,101198.19
2023-01-28T21:03:00.710Z,101201.66
2023-01-28T21:05:28.370Z,101196.56
2023-01-28T21:07:56.029Z,101193.06
2023-01-28T21:10:23.664Z,101204.97
2023-01-28T21:12:52.673Z,101206.88
2023-01-28T21:15:20.281Z,101193.84
2023-01-28T21:17:47.927Z,101204.50
2023-01-28T21:20:16.240Z,101197.75
2023-01-28T21:22:44.031Z,101208.31
2023-01-28T21:25:11.687Z,101208.31
2023-01-28T21:27:39.378Z,101199.06
2023-01-28T21:30:09.960Z,101194.44
2023-01-28T21:32:37.621Z,101206.31
2023-01-28T21:35:05.622Z,101149.06
2023-01-28T21:37:33.293Z,101216.19
2023-01-28T21:40:00.955Z,101210.50
2023-01-28T21:42:28.997Z,101141.41
2023-01-28T21:44:56.601Z,101202.56
2023-01-28T21:47:25.699Z,101203.09
2023-01-28T21:49:53.320Z,101198.88
2023-01-28T21:52:22.037Z,101192.06
2023-01-28T21:54:49.654Z,101189.22
2023-01-28T21:57:17.281Z,101184.59
2023-01-28T21:59:43.917Z,101191.38
2023-01-28T22:02:13.757Z,101177.31
2023-01-28T22:04:44.431Z,101182.81
2023-01-28T22:07:14.125Z,101183.66
2023-01-28T22:09:42.347Z,101170.69
2023-01-28T22:12:10.502Z,101174.41
2023-01-28T22:14:39.723Z,101181.47
2023-01-28T22:17:09.144Z,101177.69
2023-01-28T22:19:36.902Z,101177.44
2023-01-28T22:22:06.402Z,101170.72
2023-01-28T22:24:34.320Z,101168.78
2023-01-28T22:27:01.998Z,101173.63
2023-01-28T22:29:29.635Z,101160.31
2023-01-28T22:31:57.337Z,101159.50
2023-01-28T22:34:25.246Z,101160.00
2023-01-28T22:36:52.918Z,101165.91
2023-01-28T22:39:21.977Z,101156.72
2023-01-28T22:41:49.645Z,101155.16
2023-01-28T22:44:19.620Z,101159.59
2023-01-28T22:46:48.030Z,101159.50
2023-01-28T22:49:15.795Z,101161.47
2023-01-28T22:51:43.843Z,101151.97
2023-01-28T22:54:13.619Z,101156.84
2023-01-28T22:56:42.661Z,101152.38
2023-01-28T22:59:10.992Z,101122.72
2023-01-28T23:01:39.916Z,101147.00
2023-01-28T23:04:07.674Z,101148.41
2023-01-28T23:06:37.093Z,101150.31
2023-01-28T23:09:05.010Z,101160.31
2023-01-28T23:11:33.208Z,101154.94
2023-01-28T23:14:21.998Z,101157.63
2023-01-28T23:17:16.633Z,101158.16
2023-01-28T23:20:02.164Z,101155.47
2023-01-28T23:22:50.959Z,101158.44
2023-01-28T23:25:19.282Z,101169.78
2023-01-28T23:27:46.923Z,101171.97
2023-01-28T23:30:16.443Z,101169.53
2023-01-28T23:32:48.124Z,101146.59
2023-01-28T23:35:16.404Z,101157.31
2023-01-28T23:37:44.240Z,101170.28
2023-01-28T23:40:13.502Z,101159.94
2023-01-28T23:42:41.667Z,101161.84
2023-01-28T23:45:10.418Z,101159.06
2023-01-28T23:47:39.403Z,101158.28
2023-01-28T23:50:07.606Z,101160.47
2023-01-28T23:52:35.263Z,101158.03
2023-01-28T23:55:03.106Z,101162.31
2023-01-28T23:57:30.817Z,101158.22
2023-01-28T23:59:58.467Z,101158.56
